createdAt,value
2018-06-09T00:05:51.775Z,2.97
2018-06-09T00:11:46.785Z,2.32
2018-06-09T00:17:41.811Z,2.38
2018-06-09T00:23:36.815Z,2.64
2018-06-09T00:29:31.764Z,2.32
2018-06-09T00:35:26.772Z,2.7
2018-06-09T00:41:21.823Z,2.45
2018-06-09T00:47:16.875Z,2.29
2018-06-09T00:53:11.788Z,2.6
2018-06-09T00:59:06.789Z,3.92
2018-06-09T01:05:01.798Z,2.53
2018-06-09T01:10:56.865Z,2.5
2018-06-09T01:16:51.839Z,2.47
2018-06-09T01:22:46.807Z,2.34
2018-06-09T01:28:41.897Z,2.29
2018-06-09T01:34:36.818Z,2.69
2018-06-09T01:40:31.796Z,2.06
2018-06-09T01:46:26.843Z,2
2018-06-09T01:52:21.824Z,2.71
2018-06-09T01:58:16.827Z,2.13
2018-06-09T02:04:11.814Z,2.13
2018-06-09T02:10:06.978Z,2.14
2018-06-09T02:16:01.935Z,2.38
2018-06-09T02:21:56.851Z,2.58
2018-06-09T02:27:51.835Z,2.57
2018-06-09T02:33:46.820Z,2.23
2018-06-09T02:39:41.918Z,2.84
2018-06-09T02:45:36.899Z,2.23
2018-06-09T02:51:31.862Z,2.12
2018-06-09T02:57:26.870Z,2.23
2018-06-09T03:03:32.620Z,1.89
2018-06-09T03:09:16.925Z,2.3
2018-06-09T03:15:11.926Z,1.9
2018-06-09T03:21:06.946Z,2.31
2018-06-09T03:27:01.908Z,2.22
2018-06-09T03:32:56.881Z,1.97
2018-06-09T03:38:51.915Z,2.26
2018-06-09T03:44:46.972Z,1.86
2018-06-09T03:56:36.887Z,2
2018-06-09T04:02:31.928Z,1.72
2018-06-09T04:08:26.954Z,2.14
2018-06-09T04:14:21.962Z,1.97
2018-06-09T04:20:16.928Z,2.19
2018-06-09T04:26:12.042Z,2.4
2018-06-09T04:32:06.942Z,2.43
2018-06-09T04:38:01.936Z,2.22
2018-06-09T04:43:56.940Z,1.83
2018-06-09T04:49:55.228Z,5.33
2018-06-09T04:55:46.942Z,2.71
2018-06-09T05:01:41.943Z,2.27
2018-06-09T05:07:36.954Z,2.8
2018-06-09T05:13:31.948Z,2.54
2018-06-09T05:19:26.932Z,2.03
2018-06-09T05:25:21.967Z,2.9
2018-06-09T05:31:16.973Z,2.13
2018-06-09T05:37:12.006Z,2.67
2018-06-09T05:43:06.991Z,2.17
2018-06-09T05:49:01.978Z,2.2
2018-06-09T05:54:56.960Z,2.54
2018-06-09T06:00:52.039Z,1.84
2018-06-09T06:06:46.995Z,2.31
2018-06-09T06:12:41.953Z,2.54
2018-06-09T06:18:36.994Z,2.54
2018-06-09T06:24:31.998Z,2.09
2018-06-09T06:30:27.070Z,2.33
2018-06-09T06:36:22.007Z,2.43
2018-06-09T06:42:17.031Z,2.11
2018-06-09T06:48:11.985Z,1.68
2018-06-09T06:54:07.028Z,2.47
2018-06-09T07:00:02.766Z,2.29
2018-06-09T07:05:56.996Z,1.85
2018-06-09T07:11:52.043Z,1.63
2018-06-09T07:17:47.049Z,2.01
2018-06-09T07:23:42.044Z,1.95
2018-06-09T07:29:37.024Z,2.27
2018-06-09T07:35:32.039Z,2.72
2018-06-09T07:41:27.031Z,2.23
2018-06-09T07:47:22.017Z,3
2018-06-09T07:53:17.068Z,3.05
2018-06-09T07:59:12.029Z,4.68
2018-06-09T08:05:07.064Z,5.52
2018-06-09T08:11:02.093Z,4.83
2018-06-09T08:16:57.048Z,4.35
2018-06-09T08:22:52.069Z,4.42
2018-06-09T08:28:47.058Z,4.13
2018-06-09T08:34:42.077Z,4.6
2018-06-09T08:40:37.061Z,3.65
2018-06-09T08:46:32.079Z,3.99
2018-06-09T08:52:27.078Z,3.87
2018-06-09T08:58:22.092Z,3.67
2018-06-09T09:04:17.061Z,3.98
2018-06-09T09:10:12.711Z,3
2018-06-09T09:16:07.067Z,3.11
2018-06-09T09:22:02.124Z,3.08
2018-06-09T09:27:57.066Z,3.04
2018-06-09T09:33:52.098Z,2.93
2018-06-09T09:39:47.089Z,3.53
2018-06-09T09:45:42.076Z,2.94
2018-06-09T09:51:37.179Z,2.85
2018-06-09T09:57:32.079Z,3.01
2018-06-09T10:03:27.109Z,3.22
2018-06-09T10:09:22.149Z,3.13
2018-06-09T10:15:17.186Z,2.77
2018-06-09T10:21:12.126Z,2.42
2018-06-09T10:27:07.117Z,2.67
2018-06-09T10:33:02.111Z,2.24
2018-06-09T10:38:57.114Z,2.33
2018-06-09T10:44:52.111Z,2.73
2018-06-09T10:50:47.197Z,2.64
2018-06-09T10:56:42.204Z,2.33
2018-06-09T11:02:37.167Z,2.43
2018-06-09T11:08:32.167Z,2.3
2018-06-09T11:14:27.198Z,1.98
2018-06-09T11:20:22.164Z,1.78
2018-06-09T11:26:17.138Z,2.39
2018-06-09T11:32:12.183Z,1.36
2018-06-09T11:38:07.185Z,1.77
2018-06-09T11:44:02.142Z,1.69
2018-06-09T11:49:57.178Z,1.61
2018-06-09T11:55:52.278Z,1.31
2018-06-09T12:01:47.245Z,1.92
2018-06-09T12:07:42.174Z,1.74
2018-06-09T12:13:37.202Z,1.25
2018-06-09T12:19:32.176Z,1.43
2018-06-09T12:25:27.640Z,1.34
2018-06-09T12:31:22.603Z,1.4
2018-06-09T12:37:17.220Z,1.29
2018-06-09T12:43:12.184Z,1.24
2018-06-09T12:49:07.223Z,1.03
2018-06-09T12:55:02.230Z,1.11
2018-06-09T13:00:57.371Z,1.45
2018-06-09T13:06:52.230Z,1.19
2018-06-09T13:12:47.839Z,1.56
2018-06-09T13:18:42.237Z,1.37
2018-06-09T13:24:37.218Z,1.24
2018-06-09T13:30:32.215Z,1.1
2018-06-09T13:36:27.220Z,1.47
2018-06-09T13:42:22.277Z,1.07
2018-06-09T13:48:17.248Z,1.44
2018-06-09T13:54:12.221Z,1.2
2018-06-09T14:00:08.260Z,1.47
2018-06-09T14:06:02.259Z,2.2
2018-06-09T14:11:57.266Z,2.44
2018-06-09T14:17:52.236Z,1.37
2018-06-09T14:23:47.263Z,1.53
2018-06-09T14:29:42.246Z,1.4
2018-06-09T14:35:37.251Z,1.53
2018-06-09T14:41:32.328Z,1.44
2018-06-09T14:47:27.345Z,1.73
2018-06-09T14:53:22.292Z,1.7
2018-06-09T14:59:17.272Z,1.56
2018-06-09T15:05:12.265Z,1.79
2018-06-09T15:11:07.752Z,1.63
2018-06-09T15:17:02.530Z,1.79
2018-06-09T15:22:57.298Z,1.72
2018-06-09T15:28:52.296Z,1.72
2018-06-09T15:34:47.357Z,1.8
2018-06-09T15:40:42.277Z,1.61
2018-06-09T15:46:37.438Z,1.77
2018-06-09T15:52:32.382Z,1.63
2018-06-09T15:58:27.362Z,1.82
2018-06-09T16:04:22.371Z,1.76
2018-06-09T16:10:17.308Z,2.11
2018-06-09T16:16:12.321Z,1.46
2018-06-09T16:22:07.317Z,1.96
2018-06-09T16:28:02.420Z,1.76
2018-06-09T16:33:57.340Z,1.54
2018-06-09T16:39:52.342Z,2.19
2018-06-09T16:45:47.380Z,1.91
2018-06-09T16:51:42.321Z,1.56
2018-06-09T16:57:37.347Z,1.56
2018-06-09T17:03:32.358Z,1.46
2018-06-09T17:09:27.377Z,1.52
2018-06-09T17:15:22.385Z,1.84
2018-06-09T17:21:17.367Z,2.27
2018-06-09T17:27:12.361Z,1.67
2018-06-09T17:33:07.372Z,1.73
2018-06-09T17:39:02.366Z,2.08
2018-06-09T17:44:57.381Z,1.93
2018-06-09T17:50:52.499Z,1.89
2018-06-09T17:56:47.355Z,1.58
2018-06-09T18:02:42.424Z,1.68
2018-06-09T18:08:37.400Z,2.53
2018-06-09T18:14:32.367Z,1.85
2018-06-09T18:20:27.411Z,1.65
2018-06-09T18:26:22.376Z,1.67
2018-06-09T18:32:17.411Z,1.63
2018-06-09T18:38:12.402Z,2.23
2018-06-09T18:44:07.409Z,2.86
2018-06-09T18:50:03.008Z,2.53
2018-06-09T18:55:57.503Z,2.63
2018-06-09T19:01:52.456Z,3.05
2018-06-09T19:07:47.402Z,2.71
2018-06-09T19:13:42.465Z,3.65
2018-06-09T19:19:37.443Z,3.11
2018-06-09T19:25:32.488Z,2.9
2018-06-09T19:31:27.426Z,3.37
2018-06-09T19:37:22.466Z,3.85
2018-06-09T19:43:17.486Z,3.5
2018-06-09T19:49:12.490Z,3.74
2018-06-09T19:55:07.465Z,10.42
2018-06-09T20:01:02.477Z,8.06
2018-06-09T20:06:57.451Z,3.42
2018-06-09T20:12:52.436Z,3.39
2018-06-09T20:18:47.455Z,3.87
2018-06-09T20:24:42.473Z,4.54
2018-06-09T20:30:37.464Z,3.83
2018-06-09T20:36:32.480Z,3.75
2018-06-09T20:42:27.494Z,3.72
2018-06-09T20:48:22.471Z,3.46
2018-06-09T20:54:17.535Z,3.76
2018-06-09T21:00:12.530Z,3.48
2018-06-09T21:06:07.570Z,3.63
2018-06-09T21:12:02.548Z,3.4
2018-06-09T21:17:57.511Z,3.17
2018-06-09T21:23:52.524Z,3.03
2018-06-09T21:29:47.560Z,3.15
2018-06-09T21:35:42.550Z,3.13
2018-06-09T21:42:16.016Z,3.28
2018-06-09T21:47:32.549Z,4.29
2018-06-09T21:53:27.497Z,3.78
2018-06-09T21:59:22.522Z,3.98
2018-06-09T22:05:17.595Z,3.78
2018-06-09T22:11:12.565Z,4.29
2018-06-09T22:17:07.572Z,3.47
2018-06-09T22:23:02.567Z,4.31
2018-06-09T22:28:57.574Z,4.33
2018-06-09T22:34:52.565Z,5.08
2018-06-09T22:40:47.594Z,4.57
2018-06-09T22:46:42.612Z,4.09
2018-06-09T22:52:37.570Z,4.7
2018-06-09T22:58:32.538Z,4.48
2018-06-09T23:04:27.550Z,4.33
2018-06-09T23:10:22.913Z,4.6
2018-06-09T23:16:17.600Z,4.47
2018-06-09T23:22:12.666Z,4.43
2018-06-09T23:28:07.596Z,5.27
2018-06-09T23:34:02.577Z,5.22
2018-06-09T23:39:57.598Z,4.94
2018-06-09T23:45:52.587Z,5
2018-06-09T23:51:47.600Z,5.39
2018-06-09T23:57:42.618Z,4.77
